White Sand, Mississippi
Current Conditions -  °F | °C
As of 10:58 AM on Saturday 22 Nov 2014 (Local Time) from KCBM Reporting Station
Clear Clear  
Wind Chill: 65°   Ceiling: Unl
Heat Index: 65°   Visibility: 10mi
Dew Point: 37°   Wind: 16mph
Humidity: 35%   Direction: 150°SSE
Pressure: 30.27"   Gusts: 20mph
Location:  33.6943°N, 88.3042°W
Report Text: KCBM 221658Z AUTO 15014G17KT 10SM CLR 19/03 A3027 RMK AO2 UPB1623E1648 SLP253 P0000 T01860028 $
Loading
Personal Weather Stations






























Interactive Weather Map New forecast layout! Learn more

10-Day Weather Forecast

Advertisements
Track Severe Weather on mobile